Time;durP1;ratioP1;P1;durP2;ratioP2;P2;SDS_P1;SDS_P2;PMS_P1;PMS_P2;Temp;Humidity;BMP_temperature;BMP_pressure;BME280_temperature;BME280_humidity;BME280_pressure;Samples;Min_cycle;Max_cycle;Signal;HPM_P1;HPM_P2
2023/04/03 00:00:56;;;;;;;4.40;2.70;;;9.30;99.60;;;;;;4937187;29;20500;-76
2023/04/03 00:03:22;;;;;;;4.37;2.73;;;9.30;99.60;;;;;;4937495;29;20437;-76
2023/04/03 00:05:51;;;;;;;2.93;2.40;;;9.30;99.60;;;;;;4949777;29;20428;-76
2023/04/03 00:08:17;;;;;;;3.70;2.73;;;9.30;99.60;;;;;;4945910;29;20466;-76
2023/04/03 00:10:43;;;;;;;3.70;2.63;;;9.30;99.60;;;;;;4971937;28;20472;-77
2023/04/03 00:13:09;;;;;;;4.27;2.60;;;9.30;99.60;;;;;;4972163;28;20396;-77
2023/04/03 00:15:39;;;;;;;3.10;2.43;;;9.20;99.60;;;;;;4940747;28;20592;-76
2023/04/03 00:18:06;;;;;;;5.27;3.00;;;9.20;99.60;;;;;;4941335;28;20463;-76
2023/04/03 00:20:34;;;;;;;3.10;2.43;;;9.20;99.60;;;;;;4948842;28;20511;-77
2023/04/03 00:23:03;;;;;;;5.00;2.40;;;9.20;99.60;;;;;;4937622;29;20418;-76
2023/04/03 00:25:31;;;;;;;5.03;2.80;;;9.20;99.60;;;;;;4936724;29;20447;-76
2023/04/03 00:27:57;;;;;;;3.50;2.57;;;9.20;99.60;;;;;;4971460;28;20416;-76
2023/04/03 00:30:23;;;;;;;3.00;2.70;;;9.20;99.60;;;;;;4955863;28;20871;-76
2023/04/03 00:32:57;;;;;;;3.43;2.90;;;9.20;99.60;;;;;;4970069;28;20396;-76
2023/04/03 00:35:25;;;;;;;3.03;2.67;;;9.20;99.60;;;;;;4955333;28;20411;-76
2023/04/03 00:37:55;;;;;;;3.00;2.50;;;9.10;99.50;;;;;;4955240;29;20399;-76
2023/04/03 00:40:26;;;;;;;4.10;2.80;;;9.10;99.60;;;;;;4955815;28;21003;-76
2023/04/03 00:42:57;;;;;;;3.87;3.13;;;9.10;99.60;;;;;;4955424;28;20529;-76
2023/04/03 00:45:26;;;;;;;5.20;3.33;;;9.10;99.60;;;;;;4971373;28;20506;-76
2023/04/03 00:47:56;;;;;;;4.50;3.50;;;9.10;99.60;;;;;;4949642;28;20457;-76
2023/04/03 00:50:22;;;;;;;4.07;2.83;;;9.10;99.60;;;;;;4918202;29;20451;-76
2023/04/03 00:52:49;;;;;;;3.00;2.67;;;9.10;99.60;;;;;;4926169;29;20800;-76
2023/04/03 00:55:19;;;;;;;6.40;2.80;;;9.00;99.50;;;;;;4932920;29;20838;-76
2023/04/03 00:57:48;;;;;;;8.10;3.23;;;9.00;99.50;;;;;;4933216;29;20428;-76
2023/04/03 01:00:20;;;;;;;3.20;2.80;;;9.00;99.60;;;;;;4961297;28;20815;-76
2023/04/03 01:02:46;;;;;;;3.80;2.70;;;9.00;99.60;;;;;;4971476;28;20421;-76
2023/04/03 01:05:16;;;;;;;6.83;2.90;;;9.00;99.60;;;;;;4955263;29;20510;-76
2023/04/03 01:07:44;;;;;;;3.20;2.73;;;9.00;99.60;;;;;;4968780;28;20419;-76
2023/04/03 01:10:15;;;;;;;3.30;2.80;;;9.00;99.60;;;;;;4951409;28;20495;-76
2023/04/03 01:12:45;;;;;;;3.10;2.73;;;9.00;99.50;;;;;;4952922;29;20478;-76
2023/04/03 01:15:34;;;;;;;3.60;2.63;;;8.90;99.50;;;;;;4970782;28;20476;-76
2023/04/03 01:18:04;;;;;;;4.00;3.20;;;8.90;99.50;;;;;;4944885;29;20451;-76
2023/04/03 01:20:39;;;;;;;3.47;2.60;;;8.90;99.50;;;;;;4936915;29;20444;-76
2023/04/03 01:23:50;;;;;;;3.87;2.83;;;8.90;99.50;;;;;;4920173;29;20443;-76
2023/04/03 01:26:20;;;;;;;6.40;2.80;;;8.90;99.50;;;;;;4944064;29;20454;-76
2023/04/03 01:28:48;;;;;;;4.20;3.10;;;8.90;99.50;;;;;;4971046;28;20423;-76
2023/04/03 01:31:20;;;;;;;3.70;2.97;;;8.90;99.50;;;;;;4944616;28;20444;-76
2023/04/03 01:33:51;;;;;;;4.70;2.60;;;8.90;99.50;;;;;;4951550;29;20476;-76
2023/04/03 01:36:21;;;;;;;4.50;3.50;;;8.90;99.50;;;;;;4951179;28;20475;-76
2023/04/03 01:38:48;;;;;;;5.67;3.13;;;8.90;99.50;;;;;;4951486;29;20415;-76
2023/04/03 01:41:15;;;;;;;5.70;4.10;;;8.80;99.50;;;;;;4951257;28;20438;-76
2023/04/03 01:43:42;;;;;;;3.77;3.10;;;8.80;99.50;;;;;;4934888;29;20641;-76
2023/04/03 01:48:50;;;;;;;3.67;2.77;;;8.80;99.50;;;;;;5034198;28;20461;-78
2023/04/03 01:51:16;;;;;;;3.30;2.73;;;8.80;99.50;;;;;;5001337;28;20447;-77
2023/04/03 01:53:45;;;;;;;4.03;3.63;;;8.80;99.50;;;;;;5016299;28;20500;-77
2023/04/03 01:56:11;;;;;;;4.03;3.30;;;8.80;99.50;;;;;;5032747;28;20507;-77
2023/04/03 01:58:44;;;;;;;8.13;3.10;;;8.70;99.50;;;;;;5016826;28;20411;-77
2023/04/03 02:01:10;;;;;;;5.20;3.20;;;8.70;99.50;;;;;;5000415;28;20484;-77
2023/04/03 02:03:41;;;;;;;5.50;4.17;;;8.70;99.50;;;;;;5016575;28;20909;-77
2023/04/03 02:06:10;;;;;;;4.17;3.23;;;8.70;99.50;;;;;;5016512;28;20509;-77
2023/04/03 02:08:38;;;;;;;3.93;3.13;;;8.70;99.50;;;;;;5000034;28;20557;-77
2023/04/03 02:11:05;;;;;;;5.13;3.67;;;8.70;99.90;;;;;;4999888;28;20454;-77
2023/04/03 02:13:32;;;;;;;5.43;4.03;;;8.70;99.60;;;;;;4999678;28;20840;-77
2023/04/03 02:16:07;;;;;;;3.90;3.47;;;8.70;99.60;;;;;;5016201;28;20449;-77
2023/04/03 02:18:35;;;;;;;5.00;4.10;;;8.60;99.60;;;;;;5016119;28;20908;-77
2023/04/03 02:21:04;;;;;;;5.33;3.80;;;8.60;99.60;;;;;;5016092;28;20872;-77
2023/04/03 02:23:30;;;;;;;5.00;3.50;;;8.60;99.90;;;;;;4999661;28;20438;-77
2023/04/03 02:26:14;;;;;;;3.77;3.23;;;8.60;99.60;;;;;;5016247;28;20794;-77
2023/04/03 02:29:10;;;;;;;6.70;4.00;;;8.60;99.60;;;;;;5016973;28;20411;-77
2023/04/03 02:31:36;;;;;;;5.37;3.90;;;8.60;99.60;;;;;;5016235;28;20529;-78
2023/04/03 02:34:02;;;;;;;5.00;4.10;;;8.60;99.70;;;;;;5032261;28;20450;-77
2023/04/03 02:36:28;;;;;;;5.00;3.43;;;8.60;99.70;;;;;;4999684;28;20506;-77
2023/04/03 02:38:58;;;;;;;3.80;3.40;;;8.50;99.70;;;;;;5015903;28;20412;-77
2023/04/03 02:41:27;;;;;;;3.50;3.20;;;8.60;99.80;;;;;;5015663;28;20524;-77
2023/04/03 02:43:54;;;;;;;6.17;4.00;;;8.50;99.70;;;;;;4999621;28;20462;-77
2023/04/03 02:46:22;;;;;;;4.87;3.63;;;8.50;99.70;;;;;;5031984;28;20449;-77
2023/04/03 02:48:48;;;;;;;4.80;4.30;;;8.50;99.80;;;;;;5032193;28;20410;-77
2023/04/03 02:51:17;;;;;;;4.00;3.47;;;8.50;99.80;;;;;;5032046;28;20431;-77
2023/04/03 02:53:50;;;;;;;4.30;3.90;;;8.50;99.80;;;;;;4999509;28;20466;-77
2023/04/03 02:56:21;;;;;;;5.70;3.53;;;8.50;99.80;;;;;;5033761;28;20400;-77
2023/04/03 02:58:53;;;;;;;4.57;3.73;;;8.50;99.80;;;;;;5003398;28;20450;-77
2023/04/03 03:01:19;;;;;;;5.10;4.43;;;8.50;99.80;;;;;;5003235;28;20478;-77
2023/04/03 03:03:54;;;;;;;5.07;4.27;;;8.40;99.80;;;;;;5003121;28;20422;-77
2023/04/03 03:06:20;;;;;;;6.20;3.87;;;8.50;99.80;;;;;;5019294;28;20494;-77
2023/04/03 03:08:52;;;;;;;4.50;3.67;;;8.40;99.70;;;;;;5036884;28;20407;-77
2023/04/03 03:11:18;;;;;;;5.03;3.93;;;8.40;99.80;;;;;;5002852;28;20450;-77
2023/04/03 03:13:49;;;;;;;4.47;3.70;;;8.40;99.80;;;;;;5035428;28;20516;-77
2023/04/03 03:16:18;;;;;;;9.03;4.07;;;8.40;99.80;;;;;;5019070;28;20826;-77
2023/04/03 03:18:46;;;;;;;3.43;3.13;;;8.40;99.80;;;;;;5036656;28;20452;-77
2023/04/03 03:21:15;;;;;;;5.40;3.80;;;8.40;99.80;;;;;;5002693;28;20966;-77
2023/04/03 03:23:43;;;;;;;5.07;3.67;;;8.40;99.80;;;;;;5019091;28;20426;-77
2023/04/03 03:26:10;;;;;;;4.63;4.07;;;8.40;99.80;;;;;;5019059;28;20482;-77
2023/04/03 03:28:39;;;;;;;7.40;4.20;;;8.40;99.80;;;;;;5018710;28;20777;-77
2023/04/03 03:31:06;;;;;;;5.13;3.97;;;8.40;99.80;;;;;;5002375;28;20454;-77
2023/04/03 03:33:35;;;;;;;5.00;3.17;;;8.40;99.80;;;;;;5018630;28;20823;-77
2023/04/03 03:36:01;;;;;;;4.97;3.70;;;8.30;99.80;;;;;;5018745;28;20789;-77
2023/04/03 03:38:34;;;;;;;5.20;3.57;;;8.30;99.80;;;;;;5019081;28;20395;-77
2023/04/03 03:41:03;;;;;;;6.23;3.30;;;8.30;99.80;;;;;;5018540;28;20431;-77
2023/04/03 03:43:32;;;;;;;4.27;3.83;;;8.30;99.80;;;;;;5018750;28;20418;-77
2023/04/03 03:46:02;;;;;;;7.63;4.20;;;8.30;99.80;;;;;;5034982;28;20418;-77
2023/04/03 03:48:34;;;;;;;5.47;3.40;;;8.30;99.90;;;;;;5002187;28;20943;-77
2023/04/03 03:51:06;;;;;;;5.57;3.70;;;8.30;99.70;;;;;;5002231;28;20964;-77
2023/04/03 03:53:38;;;;;;;5.23;4.10;;;8.20;99.70;;;;;;5001987;28;20493;-77
2023/04/03 03:56:09;;;;;;;4.53;3.43;;;8.20;99.70;;;;;;5018337;28;20395;-77
2023/04/03 03:58:39;;;;;;;5.87;4.10;;;8.20;99.70;;;;;;5018850;28;20400;-77
2023/04/03 04:01:08;;;;;;;5.53;3.80;;;8.20;99.70;;;;;;5018052;28;20449;-77
2023/04/03 04:03:45;;;;;;;4.60;3.73;;;8.20;99.70;;;;;;5034591;28;20522;-77
2023/04/03 04:06:18;;;;;;;5.00;4.10;;;8.20;99.70;;;;;;5034430;28;20411;-77
2023/04/03 04:08:47;;;;;;;4.87;3.60;;;8.20;99.70;;;;;;5018022;28;20756;-77
2023/04/03 04:11:16;;;;;;;4.10;3.70;;;8.20;99.70;;;;;;5017888;28;20974;-77
2023/04/03 04:13:45;;;;;;;4.80;3.30;;;8.20;99.70;;;;;;5034382;28;20544;-77
2023/04/03 04:16:20;;;;;;;4.40;3.53;;;8.20;99.70;;;;;;5034426;28;20415;-77
2023/04/03 04:18:46;;;;;;;5.10;3.77;;;8.20;99.80;;;;;;5017857;28;20407;-77
2023/04/03 04:21:18;;;;;;;3.70;2.90;;;8.20;99.80;;;;;;5017705;28;20442;-77
2023/04/03 04:23:45;;;;;;;5.63;3.57;;;8.10;99.70;;;;;;5017833;28;20770;-77
2023/04/03 04:26:13;;;;;;;3.30;2.97;;;8.10;99.70;;;;;;5034559;28;20403;-77
2023/04/03 04:28:40;;;;;;;4.40;3.30;;;8.10;99.70;;;;;;4968213;28;20440;-77
2023/04/03 04:31:06;;;;;;;6.23;3.10;;;8.10;99.70;;;;;;4999629;28;20538;-77
2023/04/03 04:33:37;;;;;;;8.20;3.40;;;8.10;99.70;;;;;;4994797;28;20496;-77
2023/04/03 04:36:07;;;;;;;4.20;3.30;;;8.10;99.70;;;;;;4981665;28;20427;-75
2023/04/03 04:38:33;;;;;;;6.03;3.13;;;8.10;99.70;;;;;;5012015;28;20454;-76
2023/04/03 04:40:59;;;;;;;3.93;3.03;;;8.10;99.70;;;;;;5001987;28;20509;-76
2023/04/03 04:43:26;;;;;;;6.17;3.40;;;8.00;99.70;;;;;;5001264;28;20427;-77
2023/04/03 04:46:11;;;;;;;4.97;3.23;;;8.10;99.70;;;;;;5006918;28;20436;-77
2023/04/03 04:48:43;;;;;;;3.70;2.80;;;8.00;99.70;;;;;;4982664;28;20447;-78
2023/04/03 04:51:12;;;;;;;5.37;3.13;;;8.00;99.70;;;;;;5013003;28;20518;-78
2023/04/03 04:53:42;;;;;;;3.33;2.93;;;8.00;99.70;;;;;;5021814;28;20859;-77
2023/04/03 04:56:16;;;;;;;4.80;2.80;;;8.00;99.60;;;;;;5006669;28;20431;-77
2023/04/03 04:58:45;;;;;;;3.10;2.77;;;8.00;99.70;;;;;;5032529;28;20968;-77
2023/04/03 05:01:11;;;;;;;4.07;2.93;;;8.00;99.70;;;;;;5023397;28;20455;-77
2023/04/03 05:03:47;;;;;;;3.77;2.80;;;8.00;99.70;;;;;;4989520;28;20487;-77
2023/04/03 05:06:14;;;;;;;4.37;2.80;;;8.00;99.70;;;;;;5013633;28;20497;-77
2023/04/03 05:08:40;;;;;;;3.80;3.40;;;7.90;99.60;;;;;;4998139;28;20464;-77
2023/04/03 05:11:09;;;;;;;3.93;2.90;;;7.90;99.60;;;;;;5016863;28;20460;-77
2023/04/03 05:13:42;;;;;;;5.20;3.73;;;7.90;99.60;;;;;;4987219;28;20477;-77
2023/04/03 05:16:08;;;;;;;4.90;2.67;;;7.90;99.60;;;;;;4983567;28;20426;-77
2023/04/03 05:18:35;;;;;;;4.73;2.53;;;7.90;99.60;;;;;;4989490;28;20422;-78
2023/04/03 05:21:05;;;;;;;3.50;3.00;;;7.90;99.60;;;;;;5014617;28;20435;-77
2023/04/03 05:23:35;;;;;;;4.90;2.70;;;7.90;99.60;;;;;;4998787;28;20426;-77
2023/04/03 05:26:03;;;;;;;4.60;2.73;;;7.80;99.60;;;;;;5015263;28;20466;-77
2023/04/03 05:28:30;;;;;;;4.30;2.47;;;7.90;99.60;;;;;;5014878;28;20444;-76
2023/04/03 05:30:58;;;;;;;4.80;2.60;;;7.80;99.60;;;;;;5000891;28;20464;-77
2023/04/03 05:33:29;;;;;;;4.57;2.77;;;7.90;99.60;;;;;;4999407;28;20464;-77
2023/04/03 05:36:03;;;;;;;2.80;2.43;;;7.80;99.50;;;;;;5012931;28;20458;-77
2023/04/03 05:38:36;;;;;;;4.97;2.50;;;7.80;99.60;;;;;;4985402;28;20428;-77
2023/04/03 05:41:02;;;;;;;3.80;2.37;;;7.80;99.60;;;;;;5018554;28;20553;-77
2023/04/03 05:43:28;;;;;;;3.27;2.47;;;7.80;99.60;;;;;;5003605;28;20456;-78
2023/04/03 05:45:54;;;;;;;5.70;2.70;;;7.80;99.60;;;;;;5015270;28;20494;-77
2023/04/03 05:48:25;;;;;;;3.17;2.53;;;7.80;99.60;;;;;;4981008;28;20506;-77
2023/04/03 05:50:52;;;;;;;3.90;2.10;;;7.80;99.60;;;;;;4996681;28;20469;-77
2023/04/03 05:53:30;;;;;;;3.10;1.90;;;7.70;99.60;;;;;;4976242;28;20465;-77
2023/04/03 05:55:59;;;;;;;3.67;2.57;;;7.70;99.60;;;;;;4981671;28;20407;-77
2023/04/03 05:58:26;;;;;;;2.70;2.20;;;7.70;99.60;;;;;;4982085;28;20907;-77
2023/04/03 06:00:53;;;;;;;4.13;2.57;;;7.70;99.60;;;;;;5032336;28;20444;-77
2023/04/03 06:03:19;;;;;;;3.40;2.73;;;7.70;99.60;;;;;;5019946;28;20887;-77
2023/04/03 06:05:47;;;;;;;3.07;2.10;;;7.70;99.70;;;;;;5019887;28;20442;-77
2023/04/03 06:08:14;;;;;;;2.30;1.93;;;7.70;99.70;;;;;;5019987;28;20457;-77
2023/04/03 06:10:40;;;;;;;3.80;2.87;;;7.70;99.90;;;;;;5050131;28;20448;-77
2023/04/03 06:13:07;;;;;;;3.53;2.27;;;7.60;99.80;;;;;;5000503;28;20451;-77
2023/04/03 06:15:36;;;;;;;6.40;1.93;;;7.70;99.90;;;;;;5000501;28;20590;-77
2023/04/03 06:18:05;;;;;;;3.87;2.30;;;7.70;99.90;;;;;;5000438;28;20979;-77
2023/04/03 06:20:33;;;;;;;4.10;2.40;;;7.60;99.90;;;;;;5016658;28;20528;-77
2023/04/03 06:23:00;;;;;;;4.40;2.13;;;7.60;99.90;;;;;;5026691;28;20429;-77
2023/04/03 06:25:27;;;;;;;4.37;2.10;;;7.60;99.90;;;;;;5019979;28;20893;-77
2023/04/03 06:27:55;;;;;;;5.00;2.43;;;7.60;99.90;;;;;;5006041;28;20455;-77
2023/04/03 06:30:21;;;;;;;5.60;2.20;;;7.60;99.90;;;;;;4995718;28;20464;-77
2023/04/03 06:32:47;;;;;;;3.63;1.90;;;7.60;99.90;;;;;;4993366;28;20455;-77
2023/04/03 06:35:16;;;;;;;3.27;2.10;;;7.60;99.90;;;;;;5016351;28;20470;-77
2023/04/03 06:37:42;;;;;;;3.40;2.00;;;7.60;99.90;;;;;;4999530;28;20441;-77
2023/04/03 06:40:20;;;;;;;4.23;2.20;;;7.60;99.90;;;;;;4980798;28;20977;-77
2023/04/03 06:42:46;;;;;;;5.10;2.30;;;7.60;99.90;;;;;;5014546;28;20446;-77
2023/04/03 06:45:15;;;;;;;2.93;2.10;;;7.60;99.90;;;;;;4997548;28;20431;-78
2023/04/03 06:47:46;;;;;;;3.67;2.40;;;7.60;99.90;;;;;;4999646;28;20454;-77
2023/04/03 06:50:13;;;;;;;3.73;2.60;;;7.60;99.90;;;;;;4999570;28;20518;-77
2023/04/03 06:52:42;;;;;;;3.43;2.60;;;7.60;99.90;;;;;;5015589;28;20951;-77
2023/04/03 06:55:09;;;;;;;3.40;2.00;;;7.60;99.90;;;;;;5010147;28;20831;-77
2023/04/03 06:57:36;;;;;;;4.87;2.33;;;7.60;99.90;;;;;;5053777;28;20471;-77
2023/04/03 07:00:04;;;;;;;5.63;2.40;;;7.60;99.90;;;;;;5016755;28;20454;-77
2023/04/03 07:02:32;;;;;;;4.30;2.20;;;7.60;99.90;;;;;;4980589;28;20917;-77
2023/04/03 07:05:08;;;;;;;5.50;2.00;;;7.60;99.90;;;;;;5012847;28;20557;-77
2023/04/03 07:07:37;;;;;;;3.13;2.30;;;7.60;99.90;;;;;;5020391;28;20795;-77
2023/04/03 07:10:09;;;;;;;4.37;2.50;;;7.60;99.90;;;;;;5031928;28;20474;-77
2023/04/03 07:12:40;;;;;;;3.80;2.57;;;7.60;99.90;;;;;;5013352;28;20472;-77
2023/04/03 07:15:12;;;;;;;2.67;2.20;;;7.60;99.90;;;;;;5012492;28;20911;-77
2023/04/03 07:17:41;;;;;;;3.60;3.20;;;7.60;99.90;;;;;;5006056;28;20522;-77
2023/04/03 07:20:09;;;;;;;2.50;2.23;;;7.60;99.90;;;;;;5031207;28;20962;-76
2023/04/03 07:22:35;;;;;;;3.80;2.20;;;7.60;99.90;;;;;;4991545;28;20435;-76
2023/04/03 07:25:02;;;;;;;2.80;2.30;;;7.60;99.90;;;;;;5014330;28;20801;-77
2023/04/03 07:27:30;;;;;;;4.40;2.20;;;7.60;99.90;;;;;;5013934;28;20430;-76
2023/04/03 07:29:56;;;;;;;5.00;2.30;;;7.60;99.90;;;;;;5052559;22;20554;-76
2023/04/03 07:32:22;;;;;;;3.57;2.17;;;7.80;99.90;;;;;;5015917;28;20415;-75
2023/04/03 07:34:51;;;;;;;4.57;2.23;;;7.70;99.90;;;;;;5031832;28;20556;-76
2023/04/03 07:37:18;;;;;;;3.57;2.40;;;7.60;99.90;;;;;;5048661;28;20570;-76
2023/04/03 07:39:44;;;;;;;9.03;2.20;;;7.60;99.90;;;;;;5015705;28;20426;-77
2023/04/03 07:42:13;;;;;;;4.57;2.73;;;7.60;99.90;;;;;;5051802;28;20492;-78
2023/04/03 07:44:41;;;;;;;4.73;1.97;;;7.50;99.90;;;;;;5054480;28;20393;-76
2023/04/03 07:47:07;;;;;;;3.00;1.80;;;7.60;99.90;;;;;;5037197;28;20433;-76
2023/04/03 07:49:34;;;;;;;5.10;2.30;;;7.60;99.90;;;;;;5055142;28;20406;-77
2023/04/03 07:52:00;;;;;;;7.30;2.33;;;7.60;99.90;;;;;;5020493;28;20420;-76
2023/04/03 07:54:26;;;;;;;4.43;2.50;;;7.60;99.90;;;;;;5038038;28;20472;-77
2023/04/03 07:56:52;;;;;;;3.33;2.17;;;7.60;99.90;;;;;;5017798;28;20934;-77
2023/04/03 07:59:19;;;;;;;4.13;2.20;;;7.60;99.90;;;;;;5035091;28;20459;-77
2023/04/03 08:01:47;;;;;;;3.83;2.00;;;7.60;99.90;;;;;;5032180;28;20438;-76
2023/04/03 08:04:13;;;;;;;5.63;2.40;;;7.60;99.90;;;;;;5054043;28;20834;-76
2023/04/03 08:06:42;;;;;;;5.33;3.20;;;7.60;99.90;;;;;;5037159;28;20962;-77
2023/04/03 08:09:11;;;;;;;5.60;2.20;;;7.60;99.90;;;;;;5053667;28;20418;-77
2023/04/03 08:11:39;;;;;;;4.30;2.00;;;7.60;99.90;;;;;;5036934;28;20460;-76
2023/04/03 08:14:07;;;;;;;4.97;2.20;;;7.60;99.90;;;;;;5050994;28;21046;-76
2023/04/03 08:16:33;;;;;;;4.67;2.10;;;7.60;99.90;;;;;;5056782;28;20828;-77
2023/04/03 08:18:59;;;;;;;4.97;1.90;;;7.70;99.90;;;;;;5053212;28;20508;-77
2023/04/03 08:21:25;;;;;;;4.47;2.33;;;7.70;99.90;;;;;;5041347;28;20957;-77
2023/04/03 08:23:51;;;;;;;4.73;2.03;;;7.70;99.90;;;;;;5033634;28;20406;-77
2023/04/03 08:26:21;;;;;;;2.30;1.67;;;7.70;99.90;;;;;;5036832;28;20417;-76
2023/04/03 08:28:50;;;;;;;5.73;2.37;;;7.70;99.90;;;;;;5054078;28;20483;-77
2023/04/03 08:31:18;;;;;;;4.70;2.10;;;7.70;99.90;;;;;;5036402;28;20461;-77
2023/04/03 08:33:45;;;;;;;2.43;1.53;;;7.70;99.90;;;;;;5036521;28;20471;-77
2023/04/03 08:36:19;;;;;;;2.73;2.03;;;7.70;99.90;;;;;;5036684;28;20932;-77
2023/04/03 08:38:45;;;;;;;3.70;2.30;;;7.70;99.90;;;;;;5036626;28;20956;-77
2023/04/03 08:41:35;;;;;;;5.37;1.60;;;7.70;99.90;;;;;;5052839;28;20433;-77
2023/04/03 08:44:06;;;;;;;5.67;1.80;;;7.70;99.90;;;;;;5053011;28;20406;-77
2023/04/03 08:47:11;;;;;;;3.83;1.90;;;7.70;99.90;;;;;;5036534;28;20518;-77
2023/04/03 08:50:02;;;;;;;3.07;1.80;;;7.70;99.90;;;;;;5052590;28;20453;-76
2023/04/03 08:52:31;;;;;;;1.50;1.30;;;7.70;99.90;;;;;;5047127;28;20951;-77
2023/04/03 08:55:01;;;;;;;3.20;1.60;;;7.80;99.90;;;;;;5043502;28;20457;-77
2023/04/03 08:57:42;;;;;;;2.77;1.90;;;7.80;99.90;;;;;;5016625;28;20506;-77
2023/04/03 09:00:16;;;;;;;3.40;2.03;;;7.80;99.70;;;;;;5036055;28;20437;-77
2023/04/03 09:02:48;;;;;;;3.47;1.70;;;7.80;99.60;;;;;;5052895;28;20829;-77
2023/04/03 09:05:22;;;;;;;3.93;2.40;;;7.80;99.40;;;;;;5053756;28;20529;-77
2023/04/03 09:08:04;;;;;;;2.97;1.50;;;7.80;99.30;;;;;;5035739;28;20456;-77
2023/04/03 09:10:34;;;;;;;3.73;2.03;;;7.90;99.40;;;;;;5051858;28;20450;-77
2023/04/03 09:13:23;;;;;;;2.53;1.60;;;7.90;99.40;;;;;;5052560;28;20433;-77
2023/04/03 09:15:49;;;;;;;2.30;1.50;;;7.90;99.40;;;;;;5036069;28;20411;-77
2023/04/03 09:18:21;;;;;;;3.23;1.90;;;8.00;99.40;;;;;;5052351;28;20903;-77
2023/04/03 09:21:32;;;;;;;4.73;1.50;;;8.00;99.30;;;;;;5035494;28;20440;-77
2023/04/03 09:24:03;;;;;;;3.50;1.67;;;8.00;99.10;;;;;;5053757;28;20546;-76
2023/04/03 09:26:53;;;;;;;3.10;1.50;;;8.00;98.90;;;;;;5052630;28;20421;-77
2023/04/03 09:29:23;;;;;;;2.90;1.67;;;7.80;98.70;;;;;;5051181;28;20454;-77
2023/04/03 09:31:59;;;;;;;5.07;1.80;;;8.10;98.70;;;;;;5035739;28;20468;-77
2023/04/03 09:34:41;;;;;;;1.43;1.33;;;8.10;98.60;;;;;;5053121;28;20449;-77
2023/04/03 09:37:08;;;;;;;4.73;1.60;;;8.20;98.40;;;;;;5035602;28;20508;-77
2023/04/03 09:39:55;;;;;;;4.30;1.40;;;8.20;98.20;;;;;;5035260;28;20431;-77
2023/04/03 09:42:26;;;;;;;2.13;1.50;;;8.30;98.20;;;;;;5035423;28;20524;-77
2023/04/03 09:45:00;;;;;;;3.10;1.23;;;8.30;97.90;;;;;;5035585;28;20430;-77
2023/04/03 09:47:35;;;;;;;2.10;1.10;;;8.30;97.80;;;;;;5052988;28;20438;-77
2023/04/03 09:50:14;;;;;;;2.13;1.37;;;8.30;97.20;;;;;;5052687;28;20461;-76
2023/04/03 09:52:49;;;;;;;4.13;1.50;;;8.40;97.20;;;;;;5034943;28;20424;-74
2023/04/03 09:55:27;;;;;;;3.50;1.50;;;8.40;97.20;;;;;;5035061;28;20448;-77
2023/04/03 09:57:54;;;;;;;3.00;1.80;;;8.40;97.00;;;;;;5040723;28;20463;-74
2023/04/03 10:00:23;;;;;;;2.40;1.50;;;8.50;96.60;;;;;;5037079;28;20443;-76
2023/04/03 10:02:56;;;;;;;2.00;1.00;;;8.50;96.40;;;;;;5015707;28;20514;-74
2023/04/03 10:05:36;;;;;;;1.47;1.30;;;8.60;96.80;;;;;;5034766;28;20465;-74
2023/04/03 10:08:14;;;;;;;2.50;1.50;;;8.60;97.10;;;;;;5052232;28;20411;-74
2023/04/03 10:10:49;;;;;;;2.10;1.30;;;8.60;97.20;;;;;;5038964;28;20446;-74
2023/04/03 10:13:20;;;;;;;2.17;1.50;;;8.60;97.40;;;;;;5025992;28;20504;-74
2023/04/03 10:15:54;;;;;;;2.67;1.60;;;8.60;97.50;;;;;;5052136;28;20414;-75
2023/04/03 10:18:33;;;;;;;3.43;1.43;;;8.70;97.60;;;;;;5030920;28;20446;-74
2023/04/03 10:21:12;;;;;;;2.03;1.37;;;8.70;97.50;;;;;;4998284;28;20433;-74
2023/04/03 10:23:49;;;;;;;3.07;1.40;;;8.80;97.50;;;;;;5032338;28;20445;-75
2023/04/03 10:26:45;;;;;;;3.23;1.30;;;8.80;97.60;;;;;;5031029;28;20414;-74
2023/04/03 10:29:26;;;;;;;1.60;1.50;;;8.80;97.70;;;;;;5063921;28;21028;-74
2023/04/03 10:32:14;;;;;;;2.23;1.30;;;8.80;97.70;;;;;;5039706;28;20458;-74
2023/04/03 10:34:48;;;;;;;2.40;1.40;;;8.90;97.70;;;;;;5017086;28;20538;-74
2023/04/03 10:37:25;;;;;;;1.80;1.20;;;8.90;97.80;;;;;;5033506;28;20394;-74
2023/04/03 10:40:04;;;;;;;2.20;1.10;;;8.90;97.90;;;;;;5049821;28;20418;-75
2023/04/03 10:42:41;;;;;;;2.27;1.57;;;9.00;98.00;;;;;;5033231;28;20426;-76
2023/04/03 10:45:28;;;;;;;2.17;1.23;;;9.00;97.80;;;;;;5017170;28;20506;-76
2023/04/03 10:48:11;;;;;;;1.83;1.10;;;9.00;97.60;;;;;;5033254;28;20493;-76
2023/04/03 10:51:01;;;;;;;2.20;1.30;;;9.00;97.60;;;;;;5032938;28;20516;-76
2023/04/03 10:53:33;;;;;;;2.27;1.40;;;9.10;97.70;;;;;;5050092;28;20454;-76
2023/04/03 10:56:13;;;;;;;1.27;1.10;;;9.10;97.70;;;;;;5033305;28;20453;-76
2023/04/03 10:58:50;;;;;;;3.23;1.33;;;9.10;97.50;;;;;;5004461;28;20803;-76
2023/04/03 11:01:21;;;;;;;6.00;2.13;;;9.20;97.40;;;;;;5030650;28;20435;-76
2023/04/03 11:03:53;;;;;;;3.43;1.57;;;9.20;97.30;;;;;;5029702;28;20495;-76
2023/04/03 11:06:24;;;;;;;1.67;1.30;;;9.20;97.20;;;;;;5000171;28;20808;-76
2023/04/03 11:09:07;;;;;;;2.37;1.37;;;9.30;97.00;;;;;;5049673;28;20900;-76
2023/04/03 11:11:41;;;;;;;1.87;1.47;;;9.30;96.90;;;;;;5050314;28;20446;-76
2023/04/03 11:14:16;;;;;;;4.90;1.60;;;9.40;97.30;;;;;;4995672;28;20547;-76
2023/04/03 11:16:48;;;;;;;9.00;1.77;;;9.40;96.90;;;;;;4982975;28;20424;-76
2023/04/03 11:19:27;;;;;;;2.47;1.40;;;9.40;96.90;;;;;;4984685;28;20427;-76
2023/04/03 11:22:21;;;;;;;1.30;1.20;;;9.50;96.70;;;;;;5020149;28;20986;-76
2023/04/03 11:25:08;;;;;;;2.00;1.70;;;9.50;96.50;;;;;;5034142;28;20458;-76
2023/04/03 11:27:41;;;;;;;1.30;1.20;;;9.50;96.60;;;;;;5049922;28;20483;-76
2023/04/03 11:30:19;;;;;;;3.30;1.50;;;9.60;96.90;;;;;;5035198;28;1102454;-76
2023/04/03 11:32:52;;;;;;;2.57;1.53;;;9.60;96.70;;;;;;5057439;28;20914;-76
2023/04/03 11:35:21;;;;;;;2.00;1.33;;;9.70;96.40;;;;;;5057094;28;20997;-76
2023/04/03 11:37:51;;;;;;;2.10;1.40;;;9.70;96.40;;;;;;5057353;28;20843;-76
2023/04/03 11:40:26;;;;;;;2.13;1.67;;;9.70;96.60;;;;;;5026873;28;20461;-76
2023/04/03 11:43:02;;;;;;;3.00;1.70;;;9.80;96.60;;;;;;5020437;28;20494;-76
2023/04/03 11:45:35;;;;;;;2.00;1.17;;;9.80;96.60;;;;;;5037201;28;20422;-76
2023/04/03 11:48:20;;;;;;;5.83;1.80;;;9.80;96.60;;;;;;5053973;28;20403;-76
2023/04/03 11:50:47;;;;;;;2.13;1.20;;;9.90;96.70;;;;;;5020070;28;20435;-76
2023/04/03 11:53:13;;;;;;;2.77;1.70;;;9.90;96.60;;;;;;5036991;28;20472;-76
2023/04/03 11:55:48;;;;;;;3.53;1.57;;;9.90;96.40;;;;;;5053975;28;21668;-76
2023/04/03 11:58:34;;;;;;;2.23;1.40;;;10.00;95.90;;;;;;5028453;28;20188;-76
2023/04/03 12:01:01;;;;;;;3.03;1.33;;;10.00;95.90;;;;;;5000696;28;20558;-76
2023/04/03 12:03:27;;;;;;;2.00;1.60;;;10.00;95.80;;;;;;5000526;28;20778;-76
2023/04/03 12:06:06;;;;;;;2.30;1.60;;;10.00;95.80;;;;;;5017032;28;20424;-76
2023/04/03 12:08:32;;;;;;;2.97;1.93;;;10.10;95.70;;;;;;5034663;28;20927;-76
2023/04/03 12:11:13;;;;;;;2.70;1.53;;;10.10;95.60;;;;;;5016663;28;20472;-76
2023/04/03 12:13:48;;;;;;;3.00;1.70;;;10.20;95.90;;;;;;5033054;28;20181;-76
2023/04/03 12:16:29;;;;;;;3.30;1.60;;;10.20;95.80;;;;;;5000222;28;20423;-76
2023/04/03 12:19:03;;;;;;;3.33;1.80;;;10.20;95.90;;;;;;5016709;28;20451;-76
2023/04/03 12:21:44;;;;;;;4.20;1.93;;;10.20;95.80;;;;;;5016575;28;20440;-76
2023/04/03 12:24:16;;;;;;;3.57;1.57;;;10.30;95.50;;;;;;5016559;28;20841;-76
2023/04/03 12:27:01;;;;;;;3.77;1.50;;;10.30;95.50;;;;;;5022543;28;20453;-76
2023/04/03 12:29:35;;;;;;;2.53;1.30;;;10.40;95.90;;;;;;5031974;28;20773;-76
2023/04/03 12:32:22;;;;;;;1.33;1.17;;;10.40;95.70;;;;;;5052790;28;20791;-76
2023/04/03 12:35:26;;;;;;;2.63;1.20;;;10.40;95.60;;;;;;5036421;28;20441;-76
2023/04/03 12:38:10;;;;;;;2.30;1.40;;;10.40;95.60;;;;;;5019413;28;20424;-76
2023/04/03 12:40:46;;;;;;;1.73;1.30;;;10.40;95.50;;;;;;5054003;28;20445;-76
2023/04/03 12:43:33;;;;;;;3.03;1.23;;;10.40;95.40;;;;;;5019909;28;20431;-76
2023/04/03 12:46:04;;;;;;;3.10;1.13;;;10.50;95.40;;;;;;5052803;28;20390;-76
2023/04/03 12:48:44;;;;;;;1.70;1.37;;;10.50;95.20;;;;;;5035922;28;20477;-76
2023/04/03 12:51:16;;;;;;;1.97;1.17;;;10.50;95.20;;;;;;5035931;28;20447;-76
2023/04/03 12:53:43;;;;;;;6.33;1.60;;;10.60;95.00;;;;;;5053595;28;20470;-76
2023/04/03 12:56:26;;;;;;;2.50;1.50;;;10.60;94.80;;;;;;5052614;28;20915;-76
2023/04/03 12:58:54;;;;;;;3.80;1.60;;;10.60;94.70;;;;;;5052428;28;20422;-76
2023/04/03 13:01:27;;;;;;;3.27;1.27;;;10.60;94.60;;;;;;5019260;28;20810;-76
2023/04/03 13:03:56;;;;;;;1.60;1.10;;;10.70;94.60;;;;;;5052138;28;20415;-76
2023/04/03 13:06:40;;;;;;;1.97;1.33;;;10.60;94.60;;;;;;5035679;28;20488;-76
2023/04/03 13:09:18;;;;;;;1.57;1.33;;;10.70;94.60;;;;;;5053637;28;20437;-76
2023/04/03 13:11:45;;;;;;;1.50;1.07;;;10.70;94.60;;;;;;5053101;28;20908;-76
2023/04/03 13:14:20;;;;;;;1.30;1.13;;;10.80;94.50;;;;;;5050983;28;20474;-76
2023/04/03 13:17:00;;;;;;;2.50;1.10;;;10.80;94.50;;;;;;5035716;28;20422;-76
2023/04/03 13:19:27;;;;;;;5.50;1.40;;;10.80;94.50;;;;;;5035405;28;20418;-76
2023/04/03 13:22:04;;;;;;;1.50;1.40;;;10.80;94.30;;;;;;5035389;28;20418;-76